createdAt,value
2019-01-25T00:02:03.087Z,4.80
2019-01-25T00:04:45.588Z,4.57
2019-01-25T00:07:18.888Z,6.30
2019-01-25T00:09:59.716Z,4.93
2019-01-25T00:12:27.974Z,4.80
2019-01-25T00:15:04.461Z,5.40
2019-01-25T00:17:34.525Z,5.00
2019-01-25T00:20:12.502Z,5.43
2019-01-25T00:22:46.214Z,3.97
2019-01-25T00:25:26.157Z,3.93
2019-01-25T00:28:26.772Z,4.53
2019-01-25T00:31:23.575Z,4.67
2019-01-25T00:34:22.896Z,5.10
2019-01-25T00:37:13.874Z,4.67
2019-01-25T00:40:06.233Z,3.63
2019-01-25T00:42:34.795Z,4.83
2019-01-25T00:45:12.042Z,5.70
2019-01-25T00:47:45.074Z,5.47
2019-01-25T00:50:15.918Z,5.50
2019-01-25T00:52:44.409Z,5.27
2019-01-25T00:55:22.509Z,4.73
2019-01-25T00:58:26.888Z,4.83
2019-01-25T01:01:02.139Z,5.33
2019-01-25T01:03:38.717Z,5.13
2019-01-25T01:06:32.021Z,4.27
2019-01-25T01:09:27.418Z,3.67
2019-01-25T01:12:09.253Z,3.80
2019-01-25T01:14:37.525Z,3.50
2019-01-25T01:17:05.765Z,4.80
2019-01-25T01:19:36.150Z,4.93
2019-01-25T01:22:04.719Z,6.63
2019-01-25T01:24:33.129Z,5.37
2019-01-25T01:27:02.091Z,4.90
2019-01-25T01:30:04.297Z,6.00
2019-01-25T01:33:05.577Z,4.83
2019-01-25T01:35:35.766Z,5.13
2019-01-25T01:38:07.969Z,5.70
2019-01-25T01:40:44.566Z,5.07
2019-01-25T01:43:16.962Z,5.03
2019-01-25T01:46:06.539Z,6.57
2019-01-25T01:48:43.532Z,5.33
2019-01-25T01:51:23.621Z,7.07
2019-01-25T01:54:18.853Z,3.23
2019-01-25T01:57:13.827Z,5.67
2019-01-25T02:00:10.085Z,6.27
2019-01-25T02:03:11.038Z,5.13
2019-01-25T02:05:41.809Z,4.07
2019-01-25T02:08:09.959Z,4.53
2019-01-25T02:10:38.141Z,5.27
2019-01-25T02:13:06.250Z,4.47
2019-01-25T02:15:36.292Z,4.80
2019-01-25T02:18:04.661Z,3.33
2019-01-25T02:20:32.834Z,4.20
2019-01-25T02:23:01.134Z,4.33
2019-01-25T02:25:29.587Z,6.53
2019-01-25T02:27:57.949Z,5.50
2019-01-25T02:30:26.830Z,4.57
2019-01-25T02:32:55.161Z,4.73
2019-01-25T02:35:23.622Z,5.33
2019-01-25T02:37:52.030Z,5.13
2019-01-25T02:40:23.897Z,4.80
2019-01-25T02:42:52.343Z,4.73
2019-01-25T02:46:08.007Z,5.10
2019-01-25T02:48:51.114Z,4.83
2019-01-25T02:51:52.987Z,4.10
2019-01-25T02:54:30.463Z,5.13
2019-01-25T02:57:05.037Z,4.47
2019-01-25T03:00:09.626Z,5.30
2019-01-25T03:03:07.561Z,4.80
2019-01-25T03:05:50.869Z,6.07
2019-01-25T03:15:28.520Z,10.10
2019-01-25T03:17:56.821Z,11.30
2019-01-25T03:20:25.196Z,8.40
2019-01-25T03:22:53.520Z,5.30
2019-01-25T03:25:24.569Z,5.57
2019-01-25T03:28:00.356Z,4.53
2019-01-25T03:30:40.423Z,6.10
2019-01-25T03:33:24.585Z,5.00
2019-01-25T03:36:03.217Z,4.50
2019-01-25T03:38:31.953Z,5.83
2019-01-25T03:41:01.370Z,6.13
2019-01-25T03:43:29.614Z,7.83
2019-01-25T03:45:58.285Z,5.20
2019-01-25T03:54:54.980Z,7.30
2019-01-25T03:57:47.504Z,10.07
2019-01-25T04:00:29.033Z,11.30
2019-01-25T04:03:03.537Z,9.87
2019-01-25T04:05:42.530Z,7.57
2019-01-25T04:08:31.935Z,11.53
2019-01-25T04:11:03.770Z,8.33
2019-01-25T04:14:23.105Z,6.77
2019-01-25T04:17:58.964Z,5.43
2019-01-25T04:20:29.364Z,4.57
2019-01-25T04:23:07.022Z,5.93
2019-01-25T04:25:46.650Z,4.30
2019-01-25T04:29:04.760Z,4.67
2019-01-25T04:32:05.316Z,5.33
2019-01-25T04:34:40.296Z,4.17
2019-01-25T04:37:11.467Z,4.07
2019-01-25T04:39:43.486Z,4.07
2019-01-25T04:42:18.435Z,4.27
2019-01-25T04:44:51.529Z,2.97
2019-01-25T04:47:33.748Z,1.70
2019-01-25T04:52:58.928Z,1.60
2019-01-25T04:55:35.983Z,4.53
2019-01-25T04:58:30.459Z,3.90
2019-01-25T05:01:14.524Z,2.50
2019-01-25T05:04:02.364Z,5.37
2019-01-25T05:09:51.432Z,2.00
2019-01-25T05:16:02.876Z,2.90
2019-01-25T05:18:41.826Z,4.17
2019-01-25T05:21:18.988Z,2.47
2019-01-25T05:24:10.398Z,2.13
2019-01-25T05:26:47.039Z,2.70
2019-01-25T05:29:19.188Z,3.00
2019-01-25T05:32:16.109Z,2.67
2019-01-25T05:35:08.695Z,2.43
2019-01-25T05:38:04.667Z,3.00
2019-01-25T05:40:32.891Z,2.93
2019-01-25T05:43:01.073Z,2.50
2019-01-25T05:45:29.306Z,3.63
2019-01-25T05:47:57.669Z,6.13
2019-01-25T05:50:25.897Z,2.57
2019-01-25T05:52:58.783Z,3.17
2019-01-25T05:55:40.377Z,2.70
2019-01-25T05:58:35.121Z,3.07
2019-01-25T06:01:15.730Z,3.20
2019-01-25T06:03:49.754Z,2.07
2019-01-25T06:06:17.951Z,2.47
2019-01-25T06:08:46.358Z,2.80
2019-01-25T06:11:14.643Z,2.97
2019-01-25T06:13:43.995Z,3.30
2019-01-25T06:16:12.256Z,2.57
2019-01-25T06:18:40.477Z,2.50
2019-01-25T06:21:08.749Z,2.60
2019-01-25T06:23:36.982Z,2.53
2019-01-25T06:26:06.440Z,2.90
2019-01-25T06:28:34.597Z,2.63
2019-01-25T06:31:02.764Z,3.50
2019-01-25T06:33:30.986Z,3.07
2019-01-25T06:35:59.512Z,2.87
2019-01-25T06:38:27.833Z,2.83
2019-01-25T06:40:56.000Z,2.47
2019-01-25T06:43:24.666Z,2.00
2019-01-25T06:45:53.421Z,5.37
2019-01-25T06:48:21.762Z,3.73
2019-01-25T06:50:49.880Z,3.07
2019-01-25T06:53:18.004Z,2.13
2019-01-25T06:55:46.178Z,2.90
2019-01-25T06:58:36.454Z,2.20
2019-01-25T07:01:24.756Z,3.37
2019-01-25T07:03:52.989Z,2.33
2019-01-25T07:06:21.064Z,3.43
2019-01-25T07:08:49.399Z,2.93
2019-01-25T07:11:17.953Z,1.37
2019-01-25T07:13:46.168Z,2.03
2019-01-25T07:16:14.456Z,4.23
2019-01-25T07:18:42.603Z,2.10
2019-01-25T07:21:10.876Z,1.90
2019-01-25T07:23:39.045Z,2.17
2019-01-25T07:26:07.117Z,3.63
2019-01-25T07:28:35.405Z,2.33
2019-01-25T07:31:03.750Z,3.07
2019-01-25T07:33:32.453Z,2.20
2019-01-25T07:36:01.017Z,3.07
2019-01-25T07:38:29.249Z,2.10
2019-01-25T07:40:57.436Z,5.20
2019-01-25T07:43:25.674Z,16.83
2019-01-25T07:45:53.798Z,11.80
2019-01-25T07:48:21.919Z,6.70
2019-01-25T07:50:50.014Z,7.13
2019-01-25T07:53:18.341Z,8.53
2019-01-25T07:55:46.530Z,12.27
2019-01-25T07:58:14.952Z,17.03
2019-01-25T08:00:43.050Z,5.90
2019-01-25T08:03:11.174Z,5.30
2019-01-25T08:05:39.263Z,3.83
2019-01-25T08:08:07.465Z,5.73
2019-01-25T08:10:35.551Z,5.87
2019-01-25T08:13:03.873Z,26.80
2019-01-25T08:15:32.148Z,99.87
2019-01-25T08:18:00.243Z,41.17
2019-01-25T08:20:28.461Z,34.17
2019-01-25T08:22:56.589Z,23.23
2019-01-25T08:25:41.064Z,35.03
2019-01-25T08:28:31.461Z,13.03
2019-01-25T08:31:24.602Z,8.33
2019-01-25T08:33:52.898Z,4.00
2019-01-25T08:36:21.186Z,2.97
2019-01-25T08:38:49.726Z,3.43
2019-01-25T08:41:17.874Z,2.93
2019-01-25T08:43:46.122Z,3.70
2019-01-25T08:46:14.431Z,3.90
2019-01-25T08:48:42.587Z,3.27
2019-01-25T08:51:11.208Z,2.27
2019-01-25T08:53:41.436Z,3.60
2019-01-25T08:56:09.885Z,3.87
2019-01-25T08:58:38.059Z,3.57
2019-01-25T09:01:06.302Z,4.27
2019-01-25T09:03:34.555Z,2.83
2019-01-25T09:06:02.737Z,2.73
2019-01-25T09:08:31.346Z,4.90
2019-01-25T09:10:59.810Z,4.10
2019-01-25T09:13:28.019Z,5.27
2019-01-25T09:15:56.153Z,2.33
2019-01-25T09:18:24.233Z,10.43
2019-01-25T09:20:52.465Z,7.03
2019-01-25T09:23:20.761Z,3.77
2019-01-25T09:25:48.928Z,3.33
2019-01-25T09:28:16.992Z,4.33
2019-01-25T09:30:45.238Z,2.37
2019-01-25T09:33:13.411Z,2.93
2019-01-25T09:35:41.586Z,3.93
2019-01-25T09:38:09.786Z,2.60
2019-01-25T09:40:37.932Z,4.03
2019-01-25T09:43:06.224Z,3.23
2019-01-25T09:45:34.980Z,4.23
2019-01-25T09:48:03.445Z,5.20
2019-01-25T09:50:31.692Z,4.33
2019-01-25T09:52:59.785Z,6.57
2019-01-25T09:55:27.925Z,5.40
2019-01-25T09:57:57.113Z,5.10
2019-01-25T10:00:41.169Z,5.30
2019-01-25T10:03:09.243Z,4.57
2019-01-25T10:05:37.818Z,5.27
2019-01-25T10:08:06.165Z,6.67
2019-01-25T10:10:34.309Z,3.97
2019-01-25T10:13:02.490Z,4.87
2019-01-25T10:15:30.846Z,5.20
2019-01-25T10:17:59.017Z,3.70
2019-01-25T10:20:27.350Z,8.47
2019-01-25T10:22:55.425Z,3.47
2019-01-25T10:25:23.662Z,5.30
2019-01-25T10:27:51.945Z,3.47
2019-01-25T10:30:22.506Z,4.23
2019-01-25T10:32:50.717Z,4.57
2019-01-25T10:35:19.453Z,4.07
2019-01-25T10:37:47.853Z,4.07
2019-01-25T10:40:17.245Z,5.27
2019-01-25T10:42:52.670Z,3.73
2019-01-25T10:45:18.611Z,4.47
2019-01-25T10:47:46.682Z,4.53
2019-01-25T10:50:15.590Z,5.00
2019-01-25T10:52:43.789Z,3.70
2019-01-25T10:55:12.237Z,3.50
2019-01-25T10:57:40.526Z,3.33
2019-01-25T11:00:11.797Z,4.17
2019-01-25T11:02:40.169Z,4.50
2019-01-25T11:05:10.606Z,3.83
2019-01-25T11:07:39.194Z,3.80
2019-01-25T11:10:07.924Z,4.93
2019-01-25T11:12:36.102Z,6.50
2019-01-25T11:15:05.883Z,3.27
2019-01-25T11:17:36.469Z,4.33
2019-01-25T11:20:07.657Z,4.67
2019-01-25T11:22:35.890Z,3.70
2019-01-25T11:25:05.788Z,3.90
2019-01-25T11:27:33.925Z,4.20
2019-01-25T11:30:02.593Z,4.20
2019-01-25T11:32:30.726Z,3.93
2019-01-25T11:34:58.804Z,5.30
2019-01-25T11:37:26.937Z,4.53
2019-01-25T11:39:55.020Z,5.93
2019-01-25T11:42:23.173Z,3.63
2019-01-25T11:44:51.288Z,3.30
2019-01-25T11:47:19.525Z,2.63
2019-01-25T11:49:47.620Z,4.60
2019-01-25T11:52:15.756Z,3.53
2019-01-25T11:54:43.952Z,3.87
2019-01-25T11:57:12.103Z,3.07
2019-01-25T11:59:40.241Z,3.03
2019-01-25T12:02:08.549Z,2.77
2019-01-25T12:04:37.866Z,2.33
2019-01-25T12:07:06.039Z,1.70
2019-01-25T12:09:34.273Z,1.53
2019-01-25T12:12:02.482Z,1.43
2019-01-25T12:14:30.620Z,1.53
2019-01-25T12:16:58.731Z,1.77
2019-01-25T12:19:26.905Z,1.23
2019-01-25T12:21:55.028Z,1.63
2019-01-25T12:24:23.959Z,1.43
2019-01-25T12:26:52.545Z,1.53
2019-01-25T12:29:20.709Z,2.70
2019-01-25T12:31:48.889Z,1.13
2019-01-25T12:34:17.051Z,1.70
2019-01-25T12:36:45.230Z,2.03
2019-01-25T12:39:13.403Z,1.97
2019-01-25T12:41:41.486Z,1.27
2019-01-25T12:44:09.641Z,2.17
2019-01-25T12:46:37.726Z,4.53
2019-01-25T12:49:05.864Z,2.60
2019-01-25T12:51:56.435Z,6.43
2019-01-25T12:54:24.675Z,2.73
2019-01-25T12:56:53.221Z,2.23
2019-01-25T12:59:21.349Z,3.37
2019-01-25T13:01:51.032Z,5.13
2019-01-25T13:04:19.353Z,2.73
2019-01-25T13:06:47.910Z,3.87
2019-01-25T13:09:16.206Z,2.17
2019-01-25T13:11:44.481Z,1.63
2019-01-25T13:14:12.665Z,2.40
2019-01-25T13:16:40.771Z,1.27
2019-01-25T13:19:08.911Z,2.50
2019-01-25T13:21:37.104Z,1.10
2019-01-25T13:24:05.432Z,1.20
2019-01-25T13:26:33.632Z,1.23
2019-01-25T13:29:01.993Z,1.20
2019-01-25T13:31:30.174Z,1.20
2019-01-25T13:33:58.413Z,1.40
2019-01-25T13:36:26.924Z,2.10
2019-01-25T13:38:55.169Z,1.03
2019-01-25T13:41:27.276Z,1.83
2019-01-25T13:43:53.350Z,1.23
2019-01-25T13:46:21.437Z,1.77
2019-01-25T13:48:49.534Z,0.90
2019-01-25T13:51:18.438Z,0.90
2019-01-25T13:53:46.532Z,0.70
2019-01-25T13:56:14.669Z,0.57
2019-01-25T13:58:42.774Z,1.07
2019-01-25T14:01:11.101Z,0.80
2019-01-25T14:03:39.193Z,1.40
2019-01-25T14:06:07.530Z,0.90
2019-01-25T14:08:35.780Z,1.37
2019-01-25T14:11:04.143Z,0.90
2019-01-25T14:13:34.209Z,1.03
2019-01-25T14:16:02.553Z,1.93
2019-01-25T14:18:30.733Z,1.10
2019-01-25T14:20:58.873Z,1.33
2019-01-25T14:23:27.447Z,1.10
2019-01-25T14:25:55.586Z,1.67
2019-01-25T14:28:23.874Z,0.93
2019-01-25T14:30:52.025Z,4.07
2019-01-25T14:33:20.237Z,0.50
2019-01-25T14:35:48.487Z,0.90
2019-01-25T14:38:17.337Z,0.67
2019-01-25T14:40:45.577Z,2.20
2019-01-25T14:43:13.662Z,1.10
2019-01-25T14:45:41.890Z,0.70
2019-01-25T14:48:10.548Z,0.57
2019-01-25T14:50:38.799Z,0.60
2019-01-25T14:53:07.816Z,0.60
2019-01-25T14:55:36.165Z,0.77
2019-01-25T14:58:05.424Z,0.83
2019-01-25T15:00:33.689Z,1.43
2019-01-25T15:03:02.253Z,1.10
2019-01-25T15:05:30.619Z,1.07
2019-01-25T15:07:58.713Z,1.17
2019-01-25T15:10:27.055Z,1.13
2019-01-25T15:12:57.229Z,0.80
2019-01-25T15:15:25.531Z,1.43
2019-01-25T15:17:53.854Z,1.23
2019-01-25T15:20:29.145Z,1.10
2019-01-25T15:22:57.835Z,1.10
2019-01-25T15:25:26.038Z,1.13
2019-01-25T15:27:54.181Z,1.77
2019-01-25T15:30:24.988Z,1.37
2019-01-25T15:32:53.776Z,0.83
2019-01-25T15:35:22.305Z,1.83
2019-01-25T15:37:50.562Z,1.40
2019-01-25T15:40:19.001Z,1.10
2019-01-25T15:42:47.445Z,1.23
2019-01-25T15:45:16.487Z,2.60
2019-01-25T15:47:45.013Z,1.83
2019-01-25T15:50:18.971Z,3.00
2019-01-25T15:52:47.297Z,1.10
2019-01-25T15:55:15.768Z,1.20
2019-01-25T15:57:44.162Z,1.30
2019-01-25T16:00:14.024Z,1.10
2019-01-25T16:02:42.470Z,1.43
2019-01-25T16:05:13.738Z,2.87
2019-01-25T16:07:42.100Z,3.43
2019-01-25T16:10:12.453Z,1.67
2019-01-25T16:12:41.445Z,1.47
2019-01-25T16:15:12.594Z,1.63
2019-01-25T16:17:41.044Z,1.57
2019-01-25T16:20:10.897Z,3.23
2019-01-25T16:22:39.266Z,1.60
2019-01-25T16:25:10.410Z,1.80
2019-01-25T16:27:38.665Z,1.73
2019-01-25T16:30:10.076Z,1.13
2019-01-25T16:32:38.238Z,2.83
2019-01-25T16:35:06.677Z,1.27
2019-01-25T16:37:34.914Z,1.63
2019-01-25T16:40:03.824Z,1.00
2019-01-25T16:42:31.973Z,1.30
2019-01-25T16:45:00.232Z,1.60
2019-01-25T16:47:28.697Z,2.87
2019-01-25T16:50:01.305Z,4.27
2019-01-25T16:52:29.617Z,2.00
2019-01-25T16:54:57.723Z,1.73
2019-01-25T16:57:26.375Z,2.33
2019-01-25T16:59:54.472Z,2.20
2019-01-25T17:02:22.758Z,1.60
2019-01-25T17:04:51.008Z,2.00
2019-01-25T17:07:19.138Z,1.73
2019-01-25T17:09:47.325Z,2.57
2019-01-25T17:12:15.553Z,1.80
2019-01-25T17:14:43.646Z,4.53
2019-01-25T17:17:11.792Z,1.87
2019-01-25T17:19:39.975Z,2.63
2019-01-25T17:22:08.254Z,2.30
2019-01-25T17:24:37.343Z,1.10
2019-01-25T17:27:05.937Z,1.60
2019-01-25T17:29:34.060Z,1.83
2019-01-25T17:32:02.145Z,2.90
2019-01-25T17:34:30.282Z,1.83
2019-01-25T17:36:58.405Z,1.30
2019-01-25T17:39:27.485Z,1.77
2019-01-25T17:41:55.818Z,3.57
2019-01-25T17:44:23.969Z,2.07
2019-01-25T17:46:52.565Z,1.33
2019-01-25T17:49:20.749Z,1.10
2019-01-25T17:51:50.061Z,1.07
2019-01-25T17:54:18.797Z,1.33
2019-01-25T17:56:47.303Z,1.80
2019-01-25T17:59:16.202Z,1.10
2019-01-25T18:01:44.338Z,1.50
2019-01-25T18:04:12.481Z,3.13
2019-01-25T18:06:40.636Z,2.63
2019-01-25T18:09:08.923Z,1.00
2019-01-25T18:11:37.164Z,1.93
2019-01-25T18:14:05.347Z,1.53
2019-01-25T18:16:33.789Z,4.23
2019-01-25T18:19:01.925Z,1.70
2019-01-25T18:21:30.926Z,2.97
2019-01-25T18:23:59.169Z,1.43
2019-01-25T18:26:27.266Z,1.30
2019-01-25T18:29:07.933Z,1.03
2019-01-25T18:31:36.043Z,1.13
2019-01-25T18:34:05.102Z,0.70
2019-01-25T18:36:33.201Z,0.30
2019-01-25T18:39:01.349Z,0.27
2019-01-25T18:41:29.498Z,0.47
2019-01-25T18:43:57.628Z,0.60
2019-01-25T18:46:25.763Z,8.00
2019-01-25T18:48:53.874Z,0.40
2019-01-25T18:51:22.023Z,0.50
2019-01-25T18:53:50.245Z,0.70
2019-01-25T18:56:20.205Z,0.67
2019-01-25T18:58:48.497Z,0.73
2019-01-25T19:01:16.868Z,0.40
2019-01-25T19:03:45.192Z,1.70
2019-01-25T19:06:14.006Z,1.13
2019-01-25T19:08:42.320Z,0.87
2019-01-25T19:11:11.005Z,1.10
2019-01-25T19:13:39.189Z,0.83
2019-01-25T19:16:07.537Z,0.50
2019-01-25T19:18:36.258Z,0.40
2019-01-25T19:21:04.608Z,1.53
2019-01-25T19:23:33.321Z,2.97
2019-01-25T19:26:01.456Z,0.80
2019-01-25T19:28:29.538Z,1.73
2019-01-25T19:30:57.684Z,5.97
2019-01-25T19:33:25.863Z,3.53
2019-01-25T19:35:56.542Z,2.83
2019-01-25T19:38:24.676Z,2.67
2019-01-25T19:40:52.913Z,2.47
2019-01-25T19:43:21.113Z,5.97
2019-01-25T19:45:49.336Z,6.00
2019-01-25T19:48:17.529Z,15.87
2019-01-25T19:50:45.786Z,9.43
2019-01-25T19:53:13.882Z,2.37
2019-01-25T19:55:46.558Z,3.37
2019-01-25T19:58:18.569Z,1.90
2019-01-25T20:00:52.115Z,3.60
2019-01-25T20:03:23.437Z,3.00
2019-01-25T20:05:51.710Z,3.53
2019-01-25T20:08:19.978Z,2.77
2019-01-25T20:10:48.398Z,2.60
2019-01-25T20:13:16.751Z,2.90
2019-01-25T20:15:45.033Z,2.40
2019-01-25T20:18:13.580Z,3.03
2019-01-25T20:20:43.071Z,2.23
2019-01-25T20:23:11.470Z,1.60
2019-01-25T20:25:48.629Z,1.17
2019-01-25T20:28:18.566Z,4.17
2019-01-25T20:30:49.801Z,2.17
2019-01-25T20:33:17.614Z,6.30
2019-01-25T20:35:46.333Z,5.57
2019-01-25T20:38:15.089Z,10.57
2019-01-25T20:40:43.178Z,2.23
2019-01-25T20:43:12.978Z,2.63
2019-01-25T20:45:41.677Z,2.07
2019-01-25T20:48:10.033Z,2.23
2019-01-25T20:50:38.365Z,4.07
2019-01-25T20:53:17.461Z,1.20
2019-01-25T20:55:49.628Z,2.43
2019-01-25T20:58:23.336Z,4.00
2019-01-25T21:01:01.994Z,2.33
2019-01-25T21:03:30.267Z,2.20
2019-01-25T21:05:58.347Z,2.37
2019-01-25T21:08:26.611Z,1.50
2019-01-25T21:10:55.173Z,3.20
2019-01-25T21:13:23.325Z,2.03
2019-01-25T21:15:51.540Z,2.17
2019-01-25T21:18:19.893Z,3.07
2019-01-25T21:20:48.185Z,2.60
2019-01-25T21:23:16.583Z,4.47
2019-01-25T21:25:45.177Z,2.90
2019-01-25T21:28:13.696Z,2.50
2019-01-25T21:30:42.030Z,2.63
2019-01-25T21:33:10.277Z,2.90
2019-01-25T21:35:38.578Z,3.93
2019-01-25T21:38:17.354Z,4.03
2019-01-25T21:41:08.951Z,3.13
2019-01-25T21:43:59.524Z,3.60
2019-01-25T21:46:59.369Z,2.50
2019-01-25T21:49:41.378Z,3.27
2019-01-25T21:52:15.921Z,5.57
2019-01-25T21:54:44.393Z,3.40
2019-01-25T21:57:12.538Z,5.93
2019-01-25T21:59:40.673Z,4.80
2019-01-25T22:02:09.004Z,5.40
2019-01-25T22:04:37.401Z,3.30
2019-01-25T22:07:05.697Z,2.23
2019-01-25T22:09:33.942Z,3.20
2019-01-25T22:12:02.029Z,2.07
2019-01-25T22:14:30.180Z,1.50
2019-01-25T22:16:58.417Z,0.93
2019-01-25T22:19:26.801Z,5.53
2019-01-25T22:21:55.054Z,1.27
2019-01-25T22:24:24.221Z,1.40
2019-01-25T22:26:52.453Z,1.87
2019-01-25T22:29:20.714Z,3.00
2019-01-25T22:31:48.922Z,2.50
2019-01-25T22:34:36.460Z,3.60
2019-01-25T22:37:04.758Z,2.47
2019-01-25T22:39:32.931Z,1.37
2019-01-25T22:42:01.120Z,2.33
2019-01-25T22:44:29.281Z,5.50
2019-01-25T22:46:57.563Z,9.33
2019-01-25T22:49:25.717Z,9.77
2019-01-25T22:51:54.222Z,5.77
2019-01-25T22:54:22.468Z,6.17
2019-01-25T22:56:53.042Z,7.17
2019-01-25T22:59:21.550Z,5.77
2019-01-25T23:01:50.221Z,4.37
2019-01-25T23:05:06.076Z,3.10
2019-01-25T23:07:41.929Z,2.20
2019-01-25T23:10:19.677Z,1.93
2019-01-25T23:12:47.985Z,2.93
2019-01-25T23:15:17.431Z,1.63
2019-01-25T23:17:45.732Z,4.47
2019-01-25T23:20:14.458Z,2.23
2019-01-25T23:22:42.792Z,1.23
2019-01-25T23:25:11.820Z,5.30
2019-01-25T23:27:39.912Z,4.80
2019-01-25T23:30:16.197Z,2.87
2019-01-25T23:32:44.846Z,5.40
2019-01-25T23:35:13.181Z,1.90
2019-01-25T23:37:41.377Z,2.67
2019-01-25T23:40:12.996Z,1.80
2019-01-25T23:42:41.184Z,1.90
2019-01-25T23:45:11.049Z,4.03
2019-01-25T23:47:39.277Z,7.07
2019-01-25T23:50:10.045Z,8.17
2019-01-25T23:52:47.536Z,3.10
2019-01-25T23:55:15.814Z,1.97
2019-01-25T23:57:44.001Z,1.77
